Time;durP1;ratioP1;P1;durP2;ratioP2;P2;SDS_P1;SDS_P2;PMS_P1;PMS_P2;Temp;Humidity;BMP_temperature;BMP_pressure;BME280_temperature;BME280_humidity;BME280_pressure;Samples;Min_cycle;Max_cycle;Signal;HPM_P1;HPM_P2
2021/06/07 00:01:52;;;;;;;5.00;4.20;;;;;;;;;;4385441;32;20214;-57
2021/06/07 00:04:17;;;;;;;8.25;4.32;;;;;;;;;;4384152;32;20214;-57
2021/06/07 00:06:43;;;;;;;4.60;4.12;;;;;;;;;;4382637;32;20461;-58
2021/06/07 00:09:11;;;;;;;6.93;4.22;;;;;;;;;;4377717;32;20243;-57
2021/06/07 00:11:39;;;;;;;5.50;4.25;;;;;;;;;;4384443;32;20292;-57
2021/06/07 00:14:05;;;;;;;8.05;4.05;;;;;;;;;;4385486;32;20213;-57
2021/06/07 00:16:31;;;;;;;8.10;4.35;;;;;;;;;;4382262;32;20259;-57
2021/06/07 00:18:57;;;;;;;7.15;4.10;;;;;;;;;;4385893;32;20210;-57
2021/06/07 00:21:26;;;;;;;6.47;4.40;;;;;;;;;;4382217;32;20300;-57
2021/06/07 00:23:53;;;;;;;9.05;4.20;;;;;;;;;;4386176;32;20274;-59
2021/06/07 00:26:19;;;;;;;5.93;4.37;;;;;;;;;;4382214;32;20222;-56
2021/06/07 00:28:45;;;;;;;6.35;3.78;;;;;;;;;;4378369;32;20319;-56
2021/06/07 00:31:11;;;;;;;6.18;5.32;;;;;;;;;;4377084;32;20333;-56
2021/06/07 00:33:38;;;;;;;6.15;5.47;;;;;;;;;;4373024;32;20234;-56
2021/06/07 00:36:05;;;;;;;11.05;5.37;;;;;;;;;;4381937;32;20609;-56
2021/06/07 00:38:31;;;;;;;6.18;5.53;;;;;;;;;;4386234;32;20678;-57
2021/06/07 00:40:59;;;;;;;9.07;4.97;;;;;;;;;;4378773;32;20335;-57
2021/06/07 00:43:25;;;;;;;6.70;4.60;;;;;;;;;;4374395;32;20274;-57
2021/06/07 00:45:51;;;;;;;9.18;4.97;;;;;;;;;;4381960;32;20292;-56
2021/06/07 00:48:18;;;;;;;7.78;4.72;;;;;;;;;;4386933;32;20784;-56
2021/06/07 00:50:51;;;;;;;12.77;5.57;;;;;;;;;;4381568;32;20302;-58
2021/06/07 00:53:18;;;;;;;9.32;4.82;;;;;;;;;;4386949;32;20277;-56
2021/06/07 00:55:54;;;;;;;6.55;5.10;;;;;;;;;;4381631;32;20575;-56
2021/06/07 00:58:26;;;;;;;7.78;5.15;;;;;;;;;;4386892;32;20203;-57
2021/06/07 01:00:52;;;;;;;6.60;5.82;;;;;;;;;;4377390;32;20198;-56
2021/06/07 01:03:18;;;;;;;9.73;5.12;;;;;;;;;;4374482;32;20630;-56
2021/06/07 01:05:46;;;;;;;11.68;6.25;;;;;;;;;;4381272;32;20198;-57
2021/06/07 01:08:12;;;;;;;6.50;5.57;;;;;;;;;;4383012;32;20300;-57
2021/06/07 01:10:38;;;;;;;11.88;5.95;;;;;;;;;;4379641;32;20296;-57
2021/06/07 01:13:03;;;;;;;11.30;5.65;;;;;;;;;;4387765;32;20327;-57
2021/06/07 01:15:29;;;;;;;10.65;5.97;;;;;;;;;;4380083;32;20717;-57
2021/06/07 01:17:55;;;;;;;9.60;5.10;;;;;;;;;;4388457;32;20218;-56
2021/06/07 01:20:23;;;;;;;8.90;5.97;;;;;;;;;;4379834;32;20336;-56
2021/06/07 01:22:50;;;;;;;7.32;5.20;;;;;;;;;;4388913;32;20252;-56
2021/06/07 01:25:26;;;;;;;8.95;5.60;;;;;;;;;;4379131;32;20205;-57
2021/06/07 01:27:53;;;;;;;9.63;5.70;;;;;;;;;;4381270;32;20271;-56
2021/06/07 01:30:22;;;;;;;10.43;5.10;;;;;;;;;;4365833;32;20238;-57
2021/06/07 01:32:48;;;;;;;9.50;6.22;;;;;;;;;;4373567;32;20666;-57
2021/06/07 01:35:14;;;;;;;11.27;6.50;;;;;;;;;;4378653;32;20301;-57
2021/06/07 01:37:41;;;;;;;12.07;6.62;;;;;;;;;;4388947;32;20250;-57
2021/06/07 01:40:09;;;;;;;10.52;6.10;;;;;;;;;;4378272;32;20251;-57
2021/06/07 01:42:35;;;;;;;10.65;6.07;;;;;;;;;;4373356;32;20248;-57
2021/06/07 01:45:01;;;;;;;11.12;6.25;;;;;;;;;;4377466;32;20206;-57
2021/06/07 01:47:26;;;;;;;10.10;5.93;;;;;;;;;;4388777;32;20221;-56
2021/06/07 01:49:52;;;;;;;8.27;5.37;;;;;;;;;;4380233;32;20293;-56
2021/06/07 01:52:17;;;;;;;7.78;5.00;;;;;;;;;;4372706;32;20238;-56
2021/06/07 01:54:43;;;;;;;6.40;5.55;;;;;;;;;;4377608;32;20386;-55
2021/06/07 01:57:09;;;;;;;7.97;6.12;;;;;;;;;;4386713;32;20293;-56
2021/06/07 01:59:35;;;;;;;10.88;5.97;;;;;;;;;;4381704;32;20724;-56
2021/06/07 02:02:00;;;;;;;8.55;6.43;;;;;;;;;;4385692;32;20229;-56
2021/06/07 02:04:26;;;;;;;8.32;5.57;;;;;;;;;;4382523;32;20210;-57
2021/06/07 02:06:51;;;;;;;13.30;5.95;;;;;;;;;;4384491;32;20234;-56
2021/06/07 02:09:17;;;;;;;6.80;6.10;;;;;;;;;;4383176;32;20242;-56
2021/06/07 02:11:42;;;;;;;11.68;5.22;;;;;;;;;;4383782;32;20763;-56
2021/06/07 02:14:08;;;;;;;11.52;6.28;;;;;;;;;;4384468;32;20209;-57
2021/06/07 02:16:36;;;;;;;13.13;7.37;;;;;;;;;;4384108;32;20650;-57
2021/06/07 02:19:05;;;;;;;7.70;6.37;;;;;;;;;;4387935;32;20621;-57
2021/06/07 02:21:31;;;;;;;10.18;6.80;;;;;;;;;;4385504;32;20280;-57
2021/06/07 02:23:58;;;;;;;8.20;6.53;;;;;;;;;;4385755;32;20236;-57
2021/06/07 02:26:24;;;;;;;8.15;6.47;;;;;;;;;;4382302;32;20320;-56
2021/06/07 02:29:08;;;;;;;10.98;6.57;;;;;;;;;;4379220;32;20236;-56
2021/06/07 02:31:35;;;;;;;10.00;6.72;;;;;;;;;;4375249;32;20278;-57
2021/06/07 02:34:04;;;;;;;8.95;6.62;;;;;;;;;;4379727;32;20293;-56
2021/06/07 02:36:31;;;;;;;8.30;6.10;;;;;;;;;;4383978;32;20597;-56
2021/06/07 02:38:57;;;;;;;8.27;6.22;;;;;;;;;;4388101;32;20218;-56
2021/06/07 02:41:23;;;;;;;8.45;6.00;;;;;;;;;;4378468;32;20668;-57
2021/06/07 02:43:49;;;;;;;13.07;6.78;;;;;;;;;;4378816;32;20259;-56
2021/06/07 02:46:16;;;;;;;9.63;6.43;;;;;;;;;;4384020;32;20696;-56
2021/06/07 02:48:42;;;;;;;9.25;6.55;;;;;;;;;;4388186;32;20240;-57
2021/06/07 02:51:07;;;;;;;8.32;6.62;;;;;;;;;;4383596;32;20226;-57
2021/06/07 02:53:33;;;;;;;13.00;6.78;;;;;;;;;;4386692;32;20707;-57
2021/06/07 02:55:58;;;;;;;7.45;6.40;;;;;;;;;;4381967;32;20294;-56
2021/06/07 02:58:24;;;;;;;8.60;5.53;;;;;;;;;;4376002;32;20540;-56
2021/06/07 03:00:59;;;;;;;10.50;6.60;;;;;;;;;;4378742;32;20285;-55
2021/06/07 03:03:26;;;;;;;11.63;6.47;;;;;;;;;;4375832;32;20213;-57
2021/06/07 03:05:53;;;;;;;7.18;6.53;;;;;;;;;;4383113;32;20285;-58
2021/06/07 03:08:21;;;;;;;7.37;6.55;;;;;;;;;;4388409;32;20202;-56
2021/06/07 03:10:50;;;;;;;7.93;6.82;;;;;;;;;;4381475;32;20225;-56
2021/06/07 03:13:17;;;;;;;7.70;6.95;;;;;;;;;;4388759;32;20205;-56
2021/06/07 03:15:42;;;;;;;7.90;6.45;;;;;;;;;;4382665;32;20630;-57
2021/06/07 03:18:08;;;;;;;9.35;6.82;;;;;;;;;;4389056;32;20382;-56
2021/06/07 03:20:35;;;;;;;9.75;6.75;;;;;;;;;;4378825;32;20864;-57
2021/06/07 03:23:03;;;;;;;6.70;5.78;;;;;;;;;;4389326;32;20547;-56
2021/06/07 03:25:29;;;;;;;8.65;6.80;;;;;;;;;;4381561;32;20367;-56
2021/06/07 03:27:56;;;;;;;13.10;6.90;;;;;;;;;;4381793;32;20233;-56
2021/06/07 03:30:22;;;;;;;11.25;7.22;;;;;;;;;;4380610;32;20247;-57
2021/06/07 03:32:48;;;;;;;12.00;6.97;;;;;;;;;;4374922;32;20226;-56
2021/06/07 03:35:15;;;;;;;8.65;6.87;;;;;;;;;;4379790;32;20328;-57
2021/06/07 03:37:41;;;;;;;7.70;6.87;;;;;;;;;;4390124;32;20264;-57
2021/06/07 03:40:10;;;;;;;11.65;7.00;;;;;;;;;;4377111;32;20239;-56
2021/06/07 03:42:36;;;;;;;11.82;8.45;;;;;;;;;;4382164;32;20295;-57
2021/06/07 03:45:03;;;;;;;21.37;10.52;;;;;;;;;;4378506;32;20219;-57
2021/06/07 03:47:29;;;;;;;20.02;9.45;;;;;;;;;;4389448;32;20248;-57
2021/06/07 03:49:54;;;;;;;28.35;10.27;;;;;;;;;;4380459;32;20198;-57
2021/06/07 03:52:20;;;;;;;17.12;9.88;;;;;;;;;;4388471;32;20256;-57
2021/06/07 03:54:45;;;;;;;13.23;9.07;;;;;;;;;;4381504;32;20219;-57
2021/06/07 03:57:11;;;;;;;9.85;8.10;;;;;;;;;;4388111;32;20218;-57
2021/06/07 03:59:36;;;;;;;14.90;8.13;;;;;;;;;;4382274;32;20291;-57
2021/06/07 04:02:03;;;;;;;18.62;8.60;;;;;;;;;;4387035;32;20221;-57
2021/06/07 04:04:29;;;;;;;17.48;8.48;;;;;;;;;;4383121;32;20231;-56
2021/06/07 04:06:55;;;;;;;16.33;8.75;;;;;;;;;;4385571;32;20237;-57
2021/06/07 04:09:21;;;;;;;13.18;8.73;;;;;;;;;;4395484;32;20222;-57
2021/06/07 04:11:48;;;;;;;13.15;8.82;;;;;;;;;;4374328;32;20271;-56
2021/06/07 04:14:13;;;;;;;9.52;7.32;;;;;;;;;;4377975;32;20304;-57
2021/06/07 04:16:39;;;;;;;8.13;7.07;;;;;;;;;;4384302;32;20284;-57
2021/06/07 04:19:04;;;;;;;10.25;7.45;;;;;;;;;;4385287;32;20209;-56
2021/06/07 04:21:30;;;;;;;8.70;6.90;;;;;;;;;;4383240;32;20230;-57
2021/06/07 04:23:55;;;;;;;9.77;7.62;;;;;;;;;;4386043;32;20214;-57
2021/06/07 04:26:21;;;;;;;11.32;7.60;;;;;;;;;;4382357;32;20634;-57
2021/06/07 04:28:46;;;;;;;17.60;6.95;;;;;;;;;;4379016;32;20225;-57
2021/06/07 04:31:12;;;;;;;12.20;8.50;;;;;;;;;;4376998;32;20254;-57
2021/06/07 04:33:37;;;;;;;13.82;6.65;;;;;;;;;;4375716;32;20210;-56
2021/06/07 04:36:03;;;;;;;10.27;6.72;;;;;;;;;;4382106;32;20424;-57
2021/06/07 04:38:29;;;;;;;10.63;6.22;;;;;;;;;;4384661;32;20744;-57
2021/06/07 04:40:54;;;;;;;8.02;6.18;;;;;;;;;;4381448;32;20624;-57
2021/06/07 04:43:20;;;;;;;9.07;5.97;;;;;;;;;;4383331;32;20297;-57
2021/06/07 04:45:46;;;;;;;8.10;6.30;;;;;;;;;;4381171;32;20293;-58
2021/06/07 04:48:13;;;;;;;13.43;7.43;;;;;;;;;;4387016;32;20779;-57
2021/06/07 04:50:39;;;;;;;12.00;6.18;;;;;;;;;;4380688;32;20280;-58
2021/06/07 04:53:07;;;;;;;10.00;6.68;;;;;;;;;;4386986;32;20323;-57
2021/06/07 04:55:35;;;;;;;13.32;7.07;;;;;;;;;;4379517;32;20205;-57
2021/06/07 04:58:06;;;;;;;13.25;6.28;;;;;;;;;;4387293;32;20230;-57
2021/06/07 05:00:32;;;;;;;8.57;5.60;;;;;;;;;;4379387;32;20598;-57
2021/06/07 05:02:58;;;;;;;7.97;6.30;;;;;;;;;;4387655;32;20222;-57
2021/06/07 05:05:24;;;;;;;8.20;6.30;;;;;;;;;;4379313;32;20272;-58
2021/06/07 05:07:49;;;;;;;9.55;6.07;;;;;;;;;;4382981;32;20296;-55
2021/06/07 05:10:15;;;;;;;20.12;6.57;;;;;;;;;;4385114;32;20303;-59
2021/06/07 05:12:41;;;;;;;7.20;6.22;;;;;;;;;;4383837;32;20630;-56
2021/06/07 05:15:08;;;;;;;9.13;6.93;;;;;;;;;;4380409;32;20242;-56
2021/06/07 05:17:34;;;;;;;12.37;5.65;;;;;;;;;;4381016;32;20693;-56
2021/06/07 05:20:00;;;;;;;8.57;6.30;;;;;;;;;;4381417;32;20213;-57
2021/06/07 05:22:26;;;;;;;16.02;6.37;;;;;;;;;;4376540;32;20702;-58
2021/06/07 05:24:52;;;;;;;10.77;7.22;;;;;;;;;;4376972;32;20252;-56
2021/06/07 05:27:17;;;;;;;11.73;6.50;;;;;;;;;;4388784;32;20225;-56
2021/06/07 05:29:44;;;;;;;8.00;6.75;;;;;;;;;;4377428;32;20277;-57
2021/06/07 05:32:10;;;;;;;6.82;6.07;;;;;;;;;;4372210;32;20225;-57
2021/06/07 05:34:35;;;;;;;10.80;6.60;;;;;;;;;;4378853;32;20234;-57
2021/06/07 05:37:01;;;;;;;9.95;6.80;;;;;;;;;;4381873;32;20283;-56
2021/06/07 05:39:26;;;;;;;8.48;6.32;;;;;;;;;;4379908;32;20287;-56
2021/06/07 05:41:52;;;;;;;15.93;6.62;;;;;;;;;;4377505;32;20264;-57
2021/06/07 05:44:17;;;;;;;16.08;7.12;;;;;;;;;;4374185;32;20299;-57
2021/06/07 05:46:43;;;;;;;9.43;7.57;;;;;;;;;;4381826;32;20346;-58
2021/06/07 05:49:08;;;;;;;9.00;7.07;;;;;;;;;;4378460;32;20202;-58
2021/06/07 05:51:33;;;;;;;7.97;7.12;;;;;;;;;;4381826;32;20304;-56
2021/06/07 05:53:59;;;;;;;8.20;7.18;;;;;;;;;;4385330;32;20245;-57
2021/06/07 05:56:25;;;;;;;7.40;6.15;;;;;;;;;;4384363;32;20428;-59
2021/06/07 05:58:56;;;;;;;9.68;7.05;;;;;;;;;;4376944;32;20217;-56
2021/06/07 06:01:22;;;;;;;16.80;7.65;;;;;;;;;;4383242;32;20332;-57
2021/06/07 06:03:48;;;;;;;10.02;7.62;;;;;;;;;;4377821;32;20739;-57
2021/06/07 06:06:14;;;;;;;11.85;7.30;;;;;;;;;;4386187;32;20297;-56
2021/06/07 06:08:39;;;;;;;14.18;7.70;;;;;;;;;;4386704;32;20635;-56
2021/06/07 06:11:04;;;;;;;8.07;7.28;;;;;;;;;;4386884;32;20700;-57
2021/06/07 06:13:30;;;;;;;10.77;6.85;;;;;;;;;;4376721;32;20202;-57
2021/06/07 06:15:55;;;;;;;10.07;7.32;;;;;;;;;;4385347;32;20315;-57
2021/06/07 06:18:21;;;;;;;10.13;8.25;;;;;;;;;;4389481;32;20232;-57
2021/06/07 06:20:46;;;;;;;14.48;6.97;;;;;;;;;;4379865;32;20269;-57
2021/06/07 06:23:11;;;;;;;8.57;7.45;;;;;;;;;;4381170;32;20340;-58
2021/06/07 06:25:37;;;;;;;11.57;7.60;;;;;;;;;;4382586;32;20346;-57
2021/06/07 06:28:03;;;;;;;11.60;7.53;;;;;;;;;;4382096;32;20284;-58
2021/06/07 06:30:28;;;;;;;10.27;8.40;;;;;;;;;;4377432;32;20380;-60
2021/06/07 06:32:58;;;;;;;17.62;8.80;;;;;;;;;;4359848;32;20302;-58
2021/06/07 06:35:24;;;;;;;10.57;8.90;;;;;;;;;;4359705;32;20194;-57
2021/06/07 06:37:50;;;;;;;20.50;10.00;;;;;;;;;;4359815;32;20340;-56
2021/06/07 06:40:22;;;;;;;10.65;8.82;;;;;;;;;;4359548;32;20265;-57
2021/06/07 06:42:48;;;;;;;17.60;8.68;;;;;;;;;;4359654;32;20288;-57
2021/06/07 06:45:14;;;;;;;13.90;8.68;;;;;;;;;;4372572;32;20313;-57
2021/06/07 06:47:41;;;;;;;15.65;8.23;;;;;;;;;;4374550;32;20229;-57
2021/06/07 06:50:08;;;;;;;14.70;8.93;;;;;;;;;;4374374;32;20565;-57
2021/06/07 06:52:33;;;;;;;12.35;9.25;;;;;;;;;;4373795;32;20297;-57
2021/06/07 06:54:59;;;;;;;13.95;9.90;;;;;;;;;;4374110;32;20273;-57
2021/06/07 06:57:24;;;;;;;11.07;8.20;;;;;;;;;;4374235;32;20317;-56
2021/06/07 06:59:51;;;;;;;15.65;9.30;;;;;;;;;;4374188;32;20248;-57
2021/06/07 07:02:16;;;;;;;12.18;9.10;;;;;;;;;;4374081;32;20238;-57
2021/06/07 07:04:42;;;;;;;10.18;9.15;;;;;;;;;;4373772;32;20723;-58
2021/06/07 07:07:07;;;;;;;10.77;9.10;;;;;;;;;;4374113;32;20284;-58
2021/06/07 07:09:32;;;;;;;14.23;8.95;;;;;;;;;;4374128;32;20323;-58
2021/06/07 07:11:58;;;;;;;15.95;10.20;;;;;;;;;;4374538;32;20324;-56
2021/06/07 07:14:23;;;;;;;22.35;9.40;;;;;;;;;;4374005;32;20218;-57
2021/06/07 07:16:51;;;;;;;16.15;10.05;;;;;;;;;;4374828;32;20229;-56
2021/06/07 07:19:16;;;;;;;15.43;10.50;;;;;;;;;;4373099;32;20397;-56
2021/06/07 07:21:42;;;;;;;12.95;10.73;;;;;;;;;;4372823;32;20272;-56
2021/06/07 07:24:09;;;;;;;13.82;11.73;;;;;;;;;;4374221;32;20221;-57
2021/06/07 07:26:35;;;;;;;19.45;11.82;;;;;;;;;;4372458;32;20271;-57
2021/06/07 07:29:00;;;;;;;15.60;11.82;;;;;;;;;;4373716;32;20319;-57
2021/06/07 07:31:26;;;;;;;15.55;11.98;;;;;;;;;;4367732;32;20256;-57
2021/06/07 07:33:51;;;;;;;16.55;12.18;;;;;;;;;;4373344;32;20202;-60
2021/06/07 07:36:16;;;;;;;18.15;11.82;;;;;;;;;;4373527;32;20321;-58
2021/06/07 07:38:42;;;;;;;14.38;12.45;;;;;;;;;;4373415;32;20237;-58
2021/06/07 07:41:09;;;;;;;16.42;11.88;;;;;;;;;;4373099;32;20607;-57
2021/06/07 07:43:35;;;;;;;16.45;11.48;;;;;;;;;;4373422;32;20214;-58
2021/06/07 07:46:00;;;;;;;15.70;10.75;;;;;;;;;;4373252;32;20272;-58
2021/06/07 07:48:26;;;;;;;13.52;11.50;;;;;;;;;;4373635;32;20664;-58
2021/06/07 07:50:51;;;;;;;16.58;12.37;;;;;;;;;;4373071;32;20303;-58
2021/06/07 07:53:17;;;;;;;17.12;11.60;;;;;;;;;;4372896;32;20201;-58
2021/06/07 07:55:43;;;;;;;18.62;13.93;;;;;;;;;;4372171;32;20795;-60
2021/06/07 07:58:11;;;;;;;13.82;11.90;;;;;;;;;;4373261;32;20709;-57
2021/06/07 08:00:38;;;;;;;22.42;11.23;;;;;;;;;;4373103;32;20246;-58
2021/06/07 08:03:04;;;;;;;11.43;10.32;;;;;;;;;;4373546;32;20388;-58
2021/06/07 08:05:31;;;;;;;12.20;10.75;;;;;;;;;;4373244;32;20673;-58
2021/06/07 08:07:57;;;;;;;13.18;10.40;;;;;;;;;;4372772;32;20643;-57
2021/06/07 08:10:22;;;;;;;13.32;11.38;;;;;;;;;;4373522;32;20701;-58
2021/06/07 08:12:48;;;;;;;13.32;11.52;;;;;;;;;;4373669;32;20443;-58
2021/06/07 08:15:14;;;;;;;16.12;11.88;;;;;;;;;;4372884;32;20446;-58
2021/06/07 08:17:40;;;;;;;17.33;12.00;;;;;;;;;;4372887;32;20665;-57
2021/06/07 08:20:11;;;;;;;12.85;11.52;;;;;;;;;;4373241;32;20214;-58
2021/06/07 08:22:36;;;;;;;16.25;11.40;;;;;;;;;;4372550;32;20321;-58
2021/06/07 08:25:03;;;;;;;19.87;13.45;;;;;;;;;;4381366;32;20629;-58
2021/06/07 08:27:29;;;;;;;20.75;15.40;;;;;;;;;;4387960;32;20666;-59
2021/06/07 08:29:54;;;;;;;15.95;13.57;;;;;;;;;;4383692;32;20248;-58
2021/06/07 08:32:19;;;;;;;21.52;16.25;;;;;;;;;;4370437;32;20309;-58
2021/06/07 08:34:45;;;;;;;19.20;15.18;;;;;;;;;;4372242;32;20205;-58
2021/06/07 08:37:11;;;;;;;23.80;14.27;;;;;;;;;;4386121;32;20704;-58
2021/06/07 08:39:36;;;;;;;25.25;16.98;;;;;;;;;;4386637;32;20397;-58
2021/06/07 08:42:02;;;;;;;26.37;17.85;;;;;;;;;;4388186;32;20257;-58
2021/06/07 08:44:28;;;;;;;28.33;17.08;;;;;;;;;;4388112;32;20240;-59
2021/06/07 08:46:55;;;;;;;26.33;18.27;;;;;;;;;;4377465;32;20496;-57
2021/06/07 08:49:21;;;;;;;28.58;23.20;;;;;;;;;;4373011;32;20226;-58
2021/06/07 08:51:47;;;;;;;27.67;19.55;;;;;;;;;;4373224;32;20226;-58
2021/06/07 08:54:12;;;;;;;25.92;16.37;;;;;;;;;;4373594;32;20642;-58
2021/06/07 08:56:40;;;;;;;23.95;16.15;;;;;;;;;;4373265;32;20690;-58
2021/06/07 08:59:05;;;;;;;30.67;15.75;;;;;;;;;;4373702;32;20716;-58
2021/06/07 09:01:31;;;;;;;23.75;15.35;;;;;;;;;;4373680;32;20230;-58
2021/06/07 09:04:18;;;;;;;22.23;16.83;;;;;;;;;;4373563;32;20590;-57
2021/06/07 09:06:49;;;;;;;37.13;20.33;;;;;;;;;;4373173;32;20405;-58
2021/06/07 09:09:17;;;;;;;29.67;22.17;;;;;;;;;;4372730;32;20653;-58
2021/06/07 09:12:06;;;;;;;29.27;22.45;;;;;;;;;;4368966;32;20234;-57
2021/06/07 09:14:37;;;;;;;30.67;23.05;;;;;;;;;;4382982;32;20241;-57
2021/06/07 09:17:18;;;;;;;25.23;18.77;;;;;;;;;;4376035;32;20265;-58
2021/06/07 09:19:43;;;;;;;23.80;19.70;;;;;;;;;;4374456;32;20351;-59
2021/06/07 09:22:25;;;;;;;21.02;18.02;;;;;;;;;;4382448;32;20596;-58
2021/06/07 09:25:03;;;;;;;26.40;18.20;;;;;;;;;;4383004;32;20301;-58
2021/06/07 09:27:28;;;;;;;25.27;17.77;;;;;;;;;;4378786;32;20330;-60
2021/06/07 09:29:54;;;;;;;25.27;18.10;;;;;;;;;;4377727;32;20202;-60
2021/06/07 09:32:21;;;;;;;23.42;17.95;;;;;;;;;;4377675;32;20225;-59
2021/06/07 09:35:04;;;;;;;27.42;15.50;;;;;;;;;;4377593;32;20694;-59
2021/06/07 09:37:30;;;;;;;17.33;14.00;;;;;;;;;;4389131;32;20717;-59
2021/06/07 09:40:19;;;;;;;16.62;14.38;;;;;;;;;;4393077;32;20214;-59
2021/06/07 09:42:58;;;;;;;17.30;13.23;;;;;;;;;;4383207;32;20331;-58
2021/06/07 09:48:15;;;;;;;11.55;10.35;;;;;;;;;;4365943;32;20253;-59
2021/06/07 09:51:00;;;;;;;18.42;11.75;;;;;;;;;;4367133;32;20234;-58
2021/06/07 09:53:52;;;;;;;13.10;11.73;;;;;;;;;;4368873;32;20563;-58
2021/06/07 09:56:19;;;;;;;14.82;9.80;;;;;;;;;;4364425;32;20234;-58
2021/06/07 09:58:46;;;;;;;12.18;8.77;;;;;;;;;;4365996;32;20293;-60
2021/06/07 10:01:31;;;;;;;11.25;9.70;;;;;;;;;;4361918;32;20256;-58
2021/06/07 10:03:59;;;;;;;13.52;9.40;;;;;;;;;;4361164;32;20305;-59
2021/06/07 10:06:33;;;;;;;12.88;8.23;;;;;;;;;;4367278;32;20674;-59
2021/06/07 10:09:02;;;;;;;9.25;8.35;;;;;;;;;;4365696;32;20734;-61
2021/06/07 10:11:35;;;;;;;10.63;8.30;;;;;;;;;;4362716;32;20230;-59
2021/06/07 10:14:21;;;;;;;9.25;8.23;;;;;;;;;;4373962;32;20206;-58
2021/06/07 10:17:01;;;;;;;8.73;7.82;;;;;;;;;;4366583;32;20214;-59
2021/06/07 10:19:48;;;;;;;14.25;7.32;;;;;;;;;;4373423;32;20279;-58
2021/06/07 10:22:14;;;;;;;9.48;8.55;;;;;;;;;;4370512;32;20693;-58
2021/06/07 10:24:40;;;;;;;16.15;7.62;;;;;;;;;;4375358;32;20209;-59
2021/06/07 10:27:07;;;;;;;14.43;8.43;;;;;;;;;;4372275;32;20609;-59
2021/06/07 10:29:39;;;;;;;10.27;7.12;;;;;;;;;;4372673;32;20301;-57
2021/06/07 10:32:10;;;;;;;8.98;7.43;;;;;;;;;;4361007;32;20344;-58
2021/06/07 10:34:52;;;;;;;10.02;7.40;;;;;;;;;;4360117;32;20570;-58
2021/06/07 10:37:18;;;;;;;9.43;6.85;;;;;;;;;;4359175;32;20776;-58
2021/06/07 10:39:44;;;;;;;7.53;6.70;;;;;;;;;;4357661;32;20910;-59
2021/06/07 10:42:09;;;;;;;7.15;6.15;;;;;;;;;;4371937;32;20241;-58
2021/06/07 10:44:45;;;;;;;9.57;6.68;;;;;;;;;;4369925;32;20241;-58
2021/06/07 10:47:17;;;;;;;13.85;7.37;;;;;;;;;;4373108;32;20221;-59
2021/06/07 10:49:43;;;;;;;7.75;6.93;;;;;;;;;;4361652;32;20282;-59
2021/06/07 10:52:17;;;;;;;8.77;7.22;;;;;;;;;;4369438;32;20385;-59
2021/06/07 10:54:54;;;;;;;8.38;7.15;;;;;;;;;;4363069;32;20230;-58
2021/06/07 10:57:25;;;;;;;9.65;6.15;;;;;;;;;;4362501;32;20388;-59
2021/06/07 10:59:53;;;;;;;9.00;6.30;;;;;;;;;;4367315;32;20249;-57
2021/06/07 11:02:20;;;;;;;8.38;6.28;;;;;;;;;;4370186;32;20706;-58
2021/06/07 11:04:48;;;;;;;10.73;5.53;;;;;;;;;;4361533;32;20202;-57
2021/06/07 11:07:19;;;;;;;6.35;5.43;;;;;;;;;;4360327;32;20355;-58
2021/06/07 11:10:14;;;;;;;8.25;4.82;;;;;;;;;;4372489;32;20325;-59
2021/06/07 11:12:40;;;;;;;7.12;4.93;;;;;;;;;;4329492;32;20408;-59
2021/06/07 11:15:10;;;;;;;7.50;5.30;;;;;;;;;;4359716;32;20239;-59
2021/06/07 11:17:36;;;;;;;10.23;5.93;;;;;;;;;;4364832;32;20257;-59
2021/06/07 11:20:03;;;;;;;11.40;5.10;;;;;;;;;;4364587;32;20301;-57
2021/06/07 11:22:29;;;;;;;7.15;6.45;;;;;;;;;;4371401;32;20329;-60
2021/06/07 11:25:12;;;;;;;7.80;5.50;;;;;;;;;;4361924;32;20268;-60
2021/06/07 11:27:41;;;;;;;7.90;5.55;;;;;;;;;;4355977;32;20230;-58
2021/06/07 11:30:09;;;;;;;6.53;5.12;;;;;;;;;;4360874;32;20348;-58
2021/06/07 11:32:38;;;;;;;5.72;5.07;;;;;;;;;;4366704;32;20262;-57
2021/06/07 11:35:04;;;;;;;12.75;5.78;;;;;;;;;;4364234;32;20924;-59
2021/06/07 11:37:30;;;;;;;7.95;5.12;;;;;;;;;;4373328;32;20297;-58
2021/06/07 11:39:55;;;;;;;5.68;4.40;;;;;;;;;;4363998;32;20302;-58
2021/06/07 11:42:23;;;;;;;11.20;4.82;;;;;;;;;;4366169;32;20231;-58
2021/06/07 11:44:52;;;;;;;8.32;5.68;;;;;;;;;;4369439;32;20411;-57
2021/06/07 11:47:17;;;;;;;6.43;5.60;;;;;;;;;;4362060;32;20714;-57
2021/06/07 11:49:58;;;;;;;6.87;6.22;;;;;;;;;;4362882;32;20337;-58
2021/06/07 11:52:35;;;;;;;11.80;5.60;;;;;;;;;;4359086;32;20363;-57
2021/06/07 11:55:19;;;;;;;7.32;4.75;;;;;;;;;;4359291;32;20383;-58
2021/06/07 11:57:47;;;;;;;5.68;5.07;;;;;;;;;;4364906;32;20424;-58
2021/06/07 12:00:13;;;;;;;6.37;4.87;;;;;;;;;;4371105;32;20311;-58
2021/06/07 12:02:39;;;;;;;9.70;5.40;;;;;;;;;;4360218;32;20272;-58
2021/06/07 12:05:10;;;;;;;12.48;5.60;;;;;;;;;;4368911;32;20245;-58
2021/06/07 12:07:38;;;;;;;8.35;5.28;;;;;;;;;;4366966;32;20253;-57
2021/06/07 12:10:05;;;;;;;9.27;4.43;;;;;;;;;;4364253;32;20348;-58
2021/06/07 12:12:33;;;;;;;9.77;4.65;;;;;;;;;;4360275;32;20285;-58
2021/06/07 12:15:14;;;;;;;7.28;4.68;;;;;;;;;;4360982;32;20364;-58
2021/06/07 12:17:53;;;;;;;8.23;5.78;;;;;;;;;;4360181;32;20336;-58
2021/06/07 12:20:20;;;;;;;10.25;5.20;;;;;;;;;;4361753;32;20532;-58
2021/06/07 12:22:51;;;;;;;11.55;5.65;;;;;;;;;;4368441;32;20289;-58
2021/06/07 12:30:38;;;;;;;7.05;5.60;;;;;;;;;;4362058;32;20657;-58
2021/06/07 12:33:05;;;;;;;7.78;5.40;;;;;;;;;;4372150;32;20293;-57
2021/06/07 12:35:32;;;;;;;6.70;5.97;;;;;;;;;;4362749;32;20209;-58
2021/06/07 12:38:10;;;;;;;11.60;5.47;;;;;;;;;;4371734;32;20252;-58
2021/06/07 12:40:46;;;;;;;7.68;5.78;;;;;;;;;;4362739;32;20297;-57
2021/06/07 12:43:24;;;;;;;6.50;5.53;;;;;;;;;;4372115;32;20324;-57
2021/06/07 12:46:01;;;;;;;7.62;5.53;;;;;;;;;;4358367;32;20198;-58
2021/06/07 12:48:32;;;;;;;7.95;5.45;;;;;;;;;;4358001;32;20319;-57
2021/06/07 12:51:06;;;;;;;10.77;5.82;;;;;;;;;;4364029;32;20230;-58
2021/06/07 12:53:38;;;;;;;7.85;4.87;;;;;;;;;;4366485;32;20217;-58
2021/06/07 12:56:27;;;;;;;8.77;4.50;;;;;;;;;;4362502;32;20396;-58
2021/06/07 12:58:58;;;;;;;5.00;4.50;;;;;;;;;;4366362;32;20636;-59
2021/06/07 13:01:46;;;;;;;5.85;5.25;;;;;;;;;;4356377;32;20293;-58
2021/06/07 13:04:13;;;;;;;7.80;5.72;;;;;;;;;;4360236;32;20273;-57
2021/06/07 13:06:49;;;;;;;10.55;5.37;;;;;;;;;;4363144;32;20494;-58
2021/06/07 13:09:14;;;;;;;11.50;5.78;;;;;;;;;;4356477;32;20411;-57
2021/06/07 13:11:42;;;;;;;7.78;5.32;;;;;;;;;;4370858;32;20214;-57
2021/06/07 13:14:09;;;;;;;4.90;3.75;;;;;;;;;;4370254;32;20833;-58
2021/06/07 13:16:38;;;;;;;9.15;3.30;;;;;;;;;;4365809;32;20320;-58
2021/06/07 13:19:06;;;;;;;3.35;3.05;;;;;;;;;;4357237;32;20765;-57
2021/06/07 13:21:58;;;;;;;6.78;3.97;;;;;;;;;;4357865;32;20235;-57
2021/06/07 13:24:30;;;;;;;5.18;3.33;;;;;;;;;;4355113;32;20284;-58
2021/06/07 13:27:03;;;;;;;6.53;4.30;;;;;;;;;;4366309;32;20241;-58
2021/06/07 13:29:40;;;;;;;9.90;4.37;;;;;;;;;;4368051;32;20244;-58
2021/06/07 13:32:28;;;;;;;4.53;3.50;;;;;;;;;;4367139;32;20238;-59
2021/06/07 13:34:54;;;;;;;4.60;2.87;;;;;;;;;;4371719;32;20285;-59
2021/06/07 13:37:21;;;;;;;6.32;3.17;;;;;;;;;;4360258;32;20365;-58
2021/06/07 13:39:59;;;;;;;6.40;3.33;;;;;;;;;;4362687;32;20214;-59
2021/06/07 13:42:25;;;;;;;5.03;2.58;;;;;;;;;;4360744;32;20897;-57
2021/06/07 13:44:52;;;;;;;9.38;3.20;;;;;;;;;;4365363;32;20674;-57
2021/06/07 13:47:23;;;;;;;4.30;2.42;;;;;;;;;;4367395;32;20213;-58
2021/06/07 13:50:10;;;;;;;6.60;2.40;;;;;;;;;;4369273;32;20210;-58
2021/06/07 13:52:49;;;;;;;16.95;3.03;;;;;;;;;;4364684;32;20226;-58
2021/06/07 13:55:26;;;;;;;5.65;2.83;;;;;;;;;;4361343;32;20707;-59
2021/06/07 13:58:06;;;;;;;3.58;2.30;;;;;;;;;;4365109;32;20276;-58
2021/06/07 14:00:55;;;;;;;3.15;2.55;;;;;;;;;;4371229;32;20266;-59
2021/06/07 14:03:24;;;;;;;3.03;2.70;;;;;;;;;;4365100;32;20214;-58
2021/06/07 14:05:55;;;;;;;2.83;2.42;;;;;;;;;;4363533;32;20363;-59
2021/06/07 14:08:24;;;;;;;3.85;2.37;;;;;;;;;;4368259;32;20275;-58
2021/06/07 14:10:49;;;;;;;4.45;2.75;;;;;;;;;;4364653;32;20309;-58
2021/06/07 14:13:16;;;;;;;7.43;3.53;;;;;;;;;;4367199;32;20257;-59
2021/06/07 14:15:42;;;;;;;10.07;2.50;;;;;;;;;;4366425;32;20241;-58
2021/06/07 14:18:08;;;;;;;7.72;3.97;;;;;;;;;;4373875;32;20313;-59
2021/06/07 14:20:33;;;;;;;8.13;3.60;;;;;;;;;;4373947;32;20357;-59
2021/06/07 14:25:43;;;;;;;8.02;2.95;;;;;;;;;;4372365;32;20264;-59
2021/06/07 14:28:11;;;;;;;6.43;3.58;;;;;;;;;;4365116;32;20297;-58
2021/06/07 14:30:39;;;;;;;6.03;3.60;;;;;;;;;;4365813;32;20250;-59
2021/06/07 14:33:05;;;;;;;4.30;3.17;;;;;;;;;;4361598;32;20364;-59
2021/06/07 14:35:31;;;;;;;7.30;3.85;;;;;;;;;;4373362;32;20289;-59
2021/06/07 14:37:59;;;;;;;4.82;3.20;;;;;;;;;;4370293;32;20255;-59
2021/06/07 14:40:25;;;;;;;3.50;3.20;;;;;;;;;;4363130;32;20328;-59
2021/06/07 14:42:50;;;;;;;5.10;3.40;;;;;;;;;;4371261;32;20269;-59
2021/06/07 14:45:16;;;;;;;3.17;2.87;;;;;;;;;;4366601;32;20298;-59
2021/06/07 14:47:41;;;;;;;8.85;4.07;;;;;;;;;;4363655;32;20276;-59
2021/06/07 14:50:08;;;;;;;5.25;3.50;;;;;;;;;;4362654;32;20214;-59
2021/06/07 14:52:33;;;;;;;3.80;3.17;;;;;;;;;;4373781;32;20354;-59